createdAt,value
2018-06-29T00:04:41.335Z,99787.42
2018-06-29T00:10:47.020Z,99789.31
2018-06-29T00:16:54.414Z,99784.95
2018-06-29T00:23:00.492Z,99777.16
2018-06-29T00:29:06.171Z,99775.73
2018-06-29T00:35:11.849Z,99782.97
2018-06-29T00:41:17.708Z,99768.99
2018-06-29T00:47:24.761Z,99759.00
2018-06-29T00:53:30.438Z,99760.52
2018-06-29T00:59:36.402Z,99763.70
2018-06-29T01:05:42.055Z,99770.36
2018-06-29T01:11:47.986Z,99764.37
2018-06-29T01:17:54.527Z,99763.84
2018-06-29T01:24:00.318Z,99765.78
2018-06-29T01:30:06.121Z,99768.59
2018-06-29T01:36:11.895Z,99764.68
2018-06-29T01:42:17.561Z,99762.89
2018-06-29T01:48:23.549Z,99758.83
2018-06-29T01:54:30.634Z,99761.30
2018-06-29T02:00:36.454Z,99758.59
2018-06-29T02:06:42.191Z,99761.21
2018-06-29T02:12:48.086Z,99761.20
2018-06-29T02:18:53.929Z,99752.34
2018-06-29T02:24:59.570Z,99748.14
2018-06-29T02:31:05.228Z,99755.44
2018-06-29T02:37:10.934Z,99761.88
2018-06-29T02:43:17.045Z,99761.04
2018-06-29T02:49:23.913Z,99760.97
2018-06-29T02:55:29.608Z,99767.61
2018-06-29T03:01:35.356Z,99767.50
2018-06-29T03:07:41.075Z,99764.10
2018-06-29T03:13:46.785Z,99769.84
2018-06-29T03:19:52.844Z,99771.36
2018-06-29T03:25:58.605Z,99760.87
2018-06-29T03:32:04.488Z,99757.61
2018-06-29T03:38:10.375Z,99750.95
2018-06-29T03:44:16.132Z,99743.80
2018-06-29T03:50:22.251Z,99745.95
2018-06-29T03:56:28.059Z,99737.77
2018-06-29T04:02:33.802Z,99735.45
2018-06-29T04:08:39.493Z,99724.96
2018-06-29T04:14:45.164Z,99729.02
2018-06-29T04:20:51.856Z,99719.19
2018-06-29T04:26:57.552Z,99726.50
2018-06-29T04:33:03.441Z,99735.44
2018-06-29T04:39:10.868Z,99738.14
2018-06-29T04:45:16.509Z,99750.53
2018-06-29T04:51:23.441Z,99734.77
2018-06-29T04:57:29.493Z,99729.95
2018-06-29T05:03:35.230Z,99723.31
2018-06-29T05:09:40.888Z,99721.09
2018-06-29T05:15:46.731Z,99720.55
2018-06-29T05:21:52.845Z,99721.32
2018-06-29T05:27:58.714Z,99725.12
2018-06-29T05:34:04.792Z,99723.53
2018-06-29T05:40:10.867Z,99727.59
2018-06-29T05:46:16.608Z,99733.17
2018-06-29T05:52:22.323Z,99736.73
2018-06-29T05:58:28.282Z,99733.03
2018-06-29T06:04:33.944Z,99732.60
2018-06-29T06:10:39.725Z,99729.38
2018-06-29T06:16:45.440Z,99722.84
2018-06-29T06:22:51.809Z,99723.56
2018-06-29T06:28:57.664Z,99715.08
2018-06-29T06:35:04.057Z,99730.15
2018-06-29T06:41:09.718Z,99728.78
2018-06-29T06:47:15.940Z,99727.78
2018-06-29T06:53:21.737Z,99722.28
2018-06-29T06:59:27.687Z,99727.02
2018-06-29T07:05:33.477Z,99723.75
2018-06-29T07:11:39.375Z,99721.12
2018-06-29T07:17:45.074Z,99714.55
2018-06-29T07:23:50.843Z,99706.58
2018-06-29T07:29:56.643Z,99703.80
2018-06-29T07:36:02.919Z,99699.50
2018-06-29T07:42:08.762Z,99703.29
2018-06-29T07:48:14.407Z,99700.54
2018-06-29T07:54:21.253Z,99702.38
2018-06-29T08:00:27.676Z,99703.13
2018-06-29T08:06:33.381Z,99701.30
2018-06-29T08:12:39.036Z,99702.18
2018-06-29T08:18:44.469Z,99693.27
2018-06-29T08:33:31.139Z,99679.00
2018-06-29T08:39:36.959Z,99677.19
2018-06-29T08:45:42.611Z,99669.59
2018-06-29T08:51:48.363Z,99661.58
2018-06-29T08:57:54.898Z,99658.69
2018-06-29T09:04:00.723Z,99660.72
2018-06-29T09:10:07.135Z,99666.56
2018-06-29T09:16:12.921Z,99657.64
2018-06-29T09:22:18.831Z,99650.41
2018-06-29T09:28:25.051Z,99630.27
2018-06-29T09:34:30.762Z,99634.78
2018-06-29T09:40:36.491Z,99623.15
2018-06-29T09:46:42.179Z,99626.54
2018-06-29T09:52:47.815Z,99619.16
2018-06-29T09:58:54.431Z,99612.73
2018-06-29T10:05:00.518Z,99611.59
2018-06-29T10:11:06.345Z,99600.30
2018-06-29T10:17:12.065Z,99604.28
2018-06-29T10:23:17.709Z,99603.08
2018-06-29T10:29:23.416Z,99595.33
2018-06-29T10:35:29.066Z,99593.38
2018-06-29T10:41:34.767Z,99593.11
2018-06-29T10:47:40.477Z,99582.83
2018-06-29T10:53:46.195Z,99590.55
2018-06-29T10:59:52.489Z,99577.59
2018-06-29T11:05:58.302Z,99575.33
2018-06-29T11:12:03.969Z,99559.75
2018-06-29T11:18:09.819Z,99556.62
2018-06-29T11:24:15.648Z,99551.13
2018-06-29T11:30:22.800Z,99542.65
2018-06-29T11:36:28.488Z,99551.30
2018-06-29T11:42:34.280Z,99536.65
2018-06-29T11:48:40.187Z,99536.08
2018-06-29T11:54:46.107Z,99537.44
2018-06-29T12:00:52.655Z,99528.67
2018-06-29T12:06:58.611Z,99512.09
2018-06-29T12:13:04.312Z,99493.73
2018-06-29T12:19:09.790Z,99496.43
2018-06-29T12:25:15.343Z,99499.44
2018-06-29T12:31:21.412Z,99482.27
2018-06-29T12:37:27.306Z,99479.48
2018-06-29T12:43:33.580Z,99474.28
2018-06-29T12:49:39.466Z,99464.23
2018-06-29T12:55:45.350Z,99459.09
2018-06-29T13:01:51.015Z,99447.58
2018-06-29T13:07:56.929Z,99457.89
2018-06-29T13:14:02.630Z,99442.23
2018-06-29T13:20:08.807Z,99445.91
2018-06-29T13:26:14.561Z,99431.75
2018-06-29T13:32:20.711Z,99434.53
2018-06-29T13:38:26.723Z,99431.70
2018-06-29T13:44:32.611Z,99437.11
2018-06-29T13:50:38.301Z,99409.23
2018-06-29T13:56:44.066Z,99414.52
2018-06-29T14:02:49.803Z,99403.12
2018-06-29T14:08:56.202Z,99406.57
2018-06-29T14:15:01.918Z,99402.42
2018-06-29T14:21:08.159Z,99404.20
2018-06-29T14:27:14.081Z,99388.23
2018-06-29T14:33:21.315Z,99400.06
2018-06-29T14:39:27.842Z,99391.76
2018-06-29T14:45:33.556Z,99382.84
2018-06-29T14:51:39.257Z,99379.17
2018-06-29T14:57:44.991Z,99373.04
2018-06-29T15:03:50.797Z,99370.30
2018-06-29T15:09:56.606Z,99369.58
2018-06-29T15:16:02.459Z,99355.09
2018-06-29T15:22:07.802Z,99350.78
2018-06-29T15:28:13.304Z,99343.64
2018-06-29T15:34:19.188Z,99344.73
2018-06-29T15:40:25.266Z,99351.47
2018-06-29T15:46:31.283Z,99343.41
2018-06-29T15:52:36.962Z,99349.73
2018-06-29T15:58:42.980Z,99340.66
2018-06-29T16:04:48.777Z,99343.31
2018-06-29T16:10:54.532Z,99339.50
2018-06-29T16:17:00.903Z,99337.91
2018-06-29T16:23:06.935Z,99327.63
2018-06-29T16:29:12.613Z,99326.55
2018-06-29T16:35:18.523Z,99317.56
2018-06-29T16:41:25.916Z,99308.55
2018-06-29T16:47:31.989Z,99311.42
2018-06-29T16:53:37.729Z,99314.33
2018-06-29T16:59:43.481Z,99304.18
2018-06-29T17:05:50.382Z,99307.16
2018-06-29T17:11:56.610Z,99306.83
2018-06-29T17:18:02.277Z,99306.12
2018-06-29T17:24:08.395Z,99308.98
2018-06-29T17:30:14.100Z,99305.05
2018-06-29T17:36:19.971Z,99315.40
2018-06-29T17:42:26.635Z,99307.17
2018-06-29T17:48:32.341Z,99312.96
2018-06-29T17:54:38.001Z,99318.11
2018-06-29T18:00:43.793Z,99309.38
2018-06-29T18:06:49.540Z,99298.13
2018-06-29T18:12:55.334Z,99297.25
2018-06-29T18:19:01.104Z,99301.74
2018-06-29T18:25:06.998Z,99304.59
2018-06-29T18:31:12.984Z,99306.87
2018-06-29T18:37:19.907Z,99304.16
2018-06-29T18:43:26.125Z,99303.89
2018-06-29T18:49:32.198Z,99304.70
2018-06-29T18:55:38.264Z,99307.03
2018-06-29T19:01:44.435Z,99310.05
2018-06-29T19:07:51.921Z,99308.33
2018-06-29T19:13:58.090Z,99311.53
2018-06-29T19:20:04.485Z,99314.91
2018-06-29T19:26:10.779Z,99321.55
2018-06-29T19:32:16.963Z,99324.60
2018-06-29T19:38:23.374Z,99342.18
2018-06-29T19:44:29.369Z,99345.27
2018-06-29T19:50:35.713Z,99351.96
2018-06-29T19:56:41.452Z,99360.31
2018-06-29T20:02:47.063Z,99368.75
2018-06-29T20:08:53.672Z,99370.68
2018-06-29T20:14:59.316Z,99375.33
2018-06-29T20:21:05.080Z,99387.86
2018-06-29T20:27:10.769Z,99388.73
2018-06-29T20:33:16.550Z,99395.22
2018-06-29T20:39:22.252Z,99403.97
2018-06-29T20:45:27.992Z,99413.27
2018-06-29T20:51:33.786Z,99406.14
2018-06-29T20:57:39.560Z,99406.23
2018-06-29T21:03:45.255Z,99416.10
2018-06-29T21:09:51.299Z,99425.12
2018-06-29T21:15:57.338Z,99430.30
2018-06-29T21:22:03.026Z,99434.66
2018-06-29T21:28:08.826Z,99435.45
2018-06-29T21:34:14.524Z,99437.84
2018-06-29T21:40:20.341Z,99442.17
2018-06-29T21:46:26.308Z,99438.66
2018-06-29T21:52:32.069Z,99446.58
2018-06-29T21:58:37.675Z,99453.30
2018-06-29T22:04:43.468Z,99458.19
2018-06-29T22:10:49.365Z,99454.19
2018-06-29T22:16:55.425Z,99460.39
2018-06-29T22:23:01.305Z,99464.38
2018-06-29T22:29:07.101Z,99466.10
2018-06-29T22:35:12.860Z,99475.22
2018-06-29T22:41:18.695Z,99485.09
2018-06-29T22:47:25.416Z,99488.77
2018-06-29T22:53:31.278Z,99491.89
2018-06-29T22:59:37.014Z,99496.09
2018-06-29T23:05:42.753Z,99505.38
2018-06-29T23:11:48.409Z,99500.17
2018-06-29T23:17:54.550Z,99501.15
2018-06-29T23:24:00.182Z,99500.84
2018-06-29T23:30:05.974Z,99510.45
2018-06-29T23:36:11.668Z,99501.94
2018-06-29T23:42:17.336Z,99503.94
2018-06-29T23:48:25.089Z,99497.05
2018-06-29T23:54:30.872Z,99496.22
